createdAt,value
2018-11-04T00:00:00.301Z,195.87
2018-11-04T00:02:28.916Z,207.47
2018-11-04T00:04:56.949Z,208.83
2018-11-04T00:07:24.501Z,200.33
2018-11-04T00:09:53.339Z,216.07
2018-11-04T00:12:29.506Z,219.40
2018-11-04T00:15:05.937Z,207.67
2018-11-04T00:17:34.643Z,205.33
2018-11-04T00:20:13.035Z,220.77
2018-11-04T00:22:43.499Z,216.20
2018-11-04T00:25:13.409Z,210.40
2018-11-04T00:27:41.080Z,207.17
2018-11-04T00:30:10.362Z,211.17
2018-11-04T00:32:38.094Z,253.77
2018-11-04T00:35:12.974Z,226.47
2018-11-04T00:38:09.357Z,206.47
2018-11-04T00:40:40.427Z,216.70
2018-11-04T00:43:08.110Z,208.07
2018-11-04T00:45:44.731Z,206.10
2018-11-04T00:48:21.794Z,219.27
2018-11-04T00:50:49.435Z,200.40
2018-11-04T00:53:19.382Z,198.87
2018-11-04T00:55:47.993Z,210.73
2018-11-04T00:58:16.543Z,227.20
2018-11-04T01:00:56.601Z,230.23
2018-11-04T01:03:25.190Z,220.20
2018-11-04T01:05:53.824Z,219.53
2018-11-04T01:08:22.453Z,223.17
2018-11-04T01:10:51.021Z,219.57
2018-11-04T01:13:21.854Z,230.40
2018-11-04T01:15:59.122Z,215.83
2018-11-04T01:18:30.004Z,209.83
2018-11-04T01:20:57.586Z,217.03
2018-11-04T01:23:25.418Z,217.27
2018-11-04T01:25:53.021Z,222.70
2018-11-04T01:28:21.538Z,233.77
2018-11-04T01:30:49.158Z,229.77
2018-11-04T01:33:17.722Z,221.63
2018-11-04T01:35:49.172Z,233.07
2018-11-04T01:38:17.764Z,233.40
2018-11-04T01:40:53.602Z,230.13
2018-11-04T01:43:37.782Z,229.83
2018-11-04T01:46:05.448Z,222.00
2018-11-04T01:48:33.138Z,211.27
2018-11-04T01:51:00.799Z,216.83
2018-11-04T01:53:28.410Z,221.03
2018-11-04T01:56:13.454Z,207.60
2018-11-04T01:58:41.054Z,205.17
2018-11-04T02:01:08.662Z,213.63
2018-11-04T02:03:37.258Z,212.70
2018-11-04T02:06:09.991Z,205.93
2018-11-04T02:08:38.562Z,212.83
2018-11-04T02:11:20.102Z,198.13
2018-11-04T02:13:50.910Z,218.70
2018-11-04T02:16:21.776Z,201.83
2018-11-04T02:18:50.423Z,211.50
2018-11-04T02:21:21.184Z,195.60
2018-11-04T02:24:01.674Z,206.50
2018-11-04T02:26:30.353Z,236.73
2018-11-04T02:29:05.899Z,250.67
2018-11-04T02:31:38.719Z,289.63
2018-11-04T02:34:19.755Z,255.77
2018-11-04T02:36:50.909Z,265.73
2018-11-04T02:39:21.618Z,246.83
2018-11-04T02:41:52.607Z,273.97
2018-11-04T02:44:20.102Z,278.33
2018-11-04T02:46:47.790Z,254.63
2018-11-04T02:49:15.346Z,252.80
2018-11-04T02:51:43.135Z,238.23
2018-11-04T02:54:10.762Z,228.27
2018-11-04T02:56:45.689Z,234.03
2018-11-04T02:59:14.620Z,224.57
2018-11-04T03:01:43.298Z,212.90
2018-11-04T03:04:10.845Z,192.00
2018-11-04T03:06:38.436Z,186.07
2018-11-04T03:09:08.622Z,185.80
2018-11-04T03:11:43.923Z,173.80
2018-11-04T03:14:16.748Z,211.83
2018-11-04T03:16:44.350Z,186.27
2018-11-04T03:19:16.606Z,195.80
2018-11-04T03:21:46.591Z,182.67
2018-11-04T03:24:15.061Z,181.20
2018-11-04T03:26:43.672Z,197.43
2018-11-04T03:29:11.227Z,178.63
2018-11-04T03:31:40.864Z,189.97
2018-11-04T03:34:08.455Z,176.63
2018-11-04T03:36:36.052Z,187.03
2018-11-04T03:39:05.808Z,189.03
2018-11-04T03:41:33.370Z,188.40
2018-11-04T03:44:04.221Z,185.30
2018-11-04T03:46:33.505Z,209.17
2018-11-04T03:49:05.711Z,186.60
2018-11-04T03:51:42.115Z,195.47
2018-11-04T03:54:10.642Z,185.10
2018-11-04T03:56:38.290Z,180.77
2018-11-04T03:59:05.886Z,179.27
2018-11-04T04:01:33.477Z,175.17
2018-11-04T04:04:01.023Z,174.13
2018-11-04T04:06:33.601Z,181.63
2018-11-04T04:09:01.125Z,180.17
2018-11-04T04:11:28.695Z,171.90
2018-11-04T04:13:56.283Z,166.97
2018-11-04T04:16:25.941Z,176.43
2018-11-04T04:18:54.453Z,171.70
2018-11-04T04:21:21.950Z,162.03
2018-11-04T04:23:49.452Z,168.00
2018-11-04T04:26:17.061Z,162.57
2018-11-04T04:28:45.630Z,157.93
2018-11-04T04:31:13.182Z,159.10
2018-11-04T04:33:40.708Z,162.87
2018-11-04T04:36:08.323Z,155.50
2018-11-04T04:38:35.955Z,158.67
2018-11-04T04:41:03.582Z,157.40
2018-11-04T04:43:31.183Z,160.47
2018-11-04T04:45:58.721Z,178.67
2018-11-04T04:48:26.329Z,172.57
2018-11-04T04:50:57.516Z,186.20
2018-11-04T04:53:25.677Z,274.97
2018-11-04T04:56:00.669Z,185.33
2018-11-04T04:58:28.234Z,176.27
2018-11-04T05:00:57.254Z,178.63
2018-11-04T05:03:25.728Z,175.67
2018-11-04T05:05:53.334Z,171.40
2018-11-04T05:08:20.936Z,169.27
2018-11-04T05:10:53.500Z,182.33
2018-11-04T05:13:23.159Z,171.13
2018-11-04T05:15:50.769Z,183.10
2018-11-04T05:18:19.389Z,175.20
2018-11-04T05:20:46.947Z,178.13
2018-11-04T05:23:14.503Z,175.20
2018-11-04T05:25:43.086Z,181.40
2018-11-04T05:28:10.692Z,174.87
2018-11-04T05:30:38.355Z,170.40
2018-11-04T05:33:06.352Z,188.97
2018-11-04T05:35:33.844Z,196.60
2018-11-04T05:38:01.473Z,175.77
2018-11-04T05:40:31.072Z,174.23
2018-11-04T05:42:58.655Z,189.10
2018-11-04T05:45:26.204Z,187.10
2018-11-04T05:47:57.448Z,196.33
2018-11-04T05:50:24.994Z,212.10
2018-11-04T05:52:52.549Z,195.23
2018-11-04T05:55:27.272Z,199.43
2018-11-04T05:57:55.925Z,188.13
2018-11-04T06:00:30.669Z,218.27
2018-11-04T06:03:02.329Z,201.63
2018-11-04T06:05:31.441Z,193.97
2018-11-04T06:08:01.015Z,179.57
2018-11-04T06:10:30.514Z,185.33
2018-11-04T06:12:59.123Z,180.77
2018-11-04T06:15:26.647Z,175.10
2018-11-04T06:17:54.259Z,178.20
2018-11-04T06:20:21.782Z,180.70
2018-11-04T06:22:52.980Z,173.83
2018-11-04T06:25:22.584Z,178.60
2018-11-04T06:27:55.220Z,171.00
2018-11-04T06:30:22.809Z,182.50
2018-11-04T06:32:52.325Z,190.43
2018-11-04T06:35:19.814Z,187.87
2018-11-04T06:37:48.441Z,181.47
2018-11-04T06:40:28.175Z,188.57
2018-11-04T06:42:57.751Z,200.70
2018-11-04T06:45:30.418Z,189.23
2018-11-04T06:47:58.080Z,197.97
2018-11-04T06:50:25.735Z,204.53
2018-11-04T06:52:54.286Z,199.63
2018-11-04T06:55:21.825Z,181.70
2018-11-04T06:57:50.723Z,182.33
2018-11-04T07:00:28.200Z,192.07
2018-11-04T07:02:56.069Z,201.50
2018-11-04T07:05:33.382Z,192.83
2018-11-04T07:08:02.011Z,190.30
2018-11-04T07:10:29.557Z,209.07
2018-11-04T07:12:57.097Z,203.00
2018-11-04T07:15:24.741Z,196.53
2018-11-04T07:17:54.866Z,206.70
2018-11-04T07:20:26.109Z,208.00
2018-11-04T07:22:55.716Z,206.17
2018-11-04T07:25:23.275Z,204.00
2018-11-04T07:27:51.818Z,206.20
2018-11-04T07:30:20.414Z,201.60
2018-11-04T07:33:01.570Z,182.10
2018-11-04T07:35:29.186Z,198.17
2018-11-04T07:38:02.458Z,187.10
2018-11-04T07:40:38.543Z,199.23
2018-11-04T07:43:11.601Z,185.00
2018-11-04T11:10:55.906Z,170.90
2018-11-04T11:13:23.592Z,175.90
2018-11-04T11:15:51.523Z,181.33
2018-11-04T11:18:20.046Z,175.03
2018-11-04T11:20:49.514Z,188.47
2018-11-04T11:23:17.674Z,170.67
2018-11-04T11:25:45.671Z,174.90
2018-11-04T11:28:13.366Z,174.87
2018-11-04T11:30:41.310Z,197.43
2018-11-04T11:33:12.438Z,181.20
2018-11-04T11:35:40.037Z,176.40
2018-11-04T11:38:09.070Z,171.17
2018-11-04T11:40:41.258Z,169.27
2018-11-04T11:43:09.098Z,170.03
2018-11-04T11:45:38.927Z,162.33
2018-11-04T11:48:06.679Z,165.57
2018-11-04T11:50:34.245Z,162.17
2018-11-04T11:53:02.605Z,153.60
2018-11-04T11:55:30.561Z,154.67
2018-11-04T11:57:58.522Z,156.77
2018-11-04T12:00:27.174Z,152.87
2018-11-04T12:02:54.821Z,154.17
2018-11-04T12:05:22.413Z,153.10
2018-11-04T12:07:51.085Z,161.70
2018-11-04T12:10:18.693Z,157.00
2018-11-04T12:12:47.289Z,154.97
2018-11-04T12:15:15.041Z,155.23
2018-11-04T12:17:42.678Z,162.57
2018-11-04T12:20:12.253Z,157.17
2018-11-04T12:22:39.881Z,151.07
2018-11-04T12:25:09.529Z,147.67
2018-11-04T12:27:37.116Z,155.00
2018-11-04T12:30:05.274Z,146.50
2018-11-04T12:32:32.937Z,144.10
2018-11-04T12:35:02.410Z,157.77
2018-11-04T12:37:29.922Z,147.70
2018-11-04T12:39:57.452Z,153.27
2018-11-04T12:42:26.162Z,151.33
2018-11-04T12:44:56.015Z,150.17
2018-11-04T12:47:24.125Z,150.10
2018-11-04T12:49:52.318Z,148.33
2018-11-04T12:52:20.929Z,148.43
2018-11-04T12:54:48.871Z,150.83
2018-11-04T12:57:16.610Z,148.00
2018-11-04T12:59:45.638Z,148.07
2018-11-04T13:02:14.657Z,154.47
2018-11-04T13:04:44.288Z,147.77
2018-11-04T13:07:12.978Z,146.17
2018-11-04T13:09:40.553Z,154.30
2018-11-04T13:12:08.308Z,146.63
2018-11-04T13:14:35.930Z,144.67
2018-11-04T13:17:04.337Z,150.27
2018-11-04T13:19:31.912Z,144.60
2018-11-04T13:21:59.441Z,147.70
2018-11-04T13:24:31.024Z,142.83
2018-11-04T13:27:03.761Z,145.80
2018-11-04T13:29:31.864Z,147.70
2018-11-04T13:32:01.503Z,149.70
2018-11-04T13:34:29.215Z,144.13
2018-11-04T13:36:58.370Z,148.33
2018-11-04T13:39:26.855Z,148.27
2018-11-04T13:41:56.064Z,146.53
2018-11-04T13:44:25.048Z,146.57
2018-11-04T13:46:54.334Z,141.73
2018-11-04T13:49:29.551Z,142.50
2018-11-04T13:51:57.108Z,135.17
2018-11-04T13:54:28.738Z,135.40
2018-11-04T13:56:58.388Z,131.67
2018-11-04T13:59:27.081Z,135.10
2018-11-04T14:01:57.785Z,138.43
2018-11-04T14:04:27.828Z,134.10
2018-11-04T14:06:57.674Z,131.60
2018-11-04T14:09:26.149Z,129.33
2018-11-04T14:11:54.284Z,137.00
2018-11-04T14:14:26.196Z,139.40
2018-11-04T14:16:54.339Z,136.70
2018-11-04T14:19:21.856Z,133.50
2018-11-04T14:22:13.411Z,138.47
2018-11-04T14:24:45.277Z,140.93
2018-11-04T14:27:16.913Z,135.70
2018-11-04T14:29:48.309Z,141.83
2018-11-04T14:32:16.109Z,142.03
2018-11-04T14:34:48.076Z,147.53
2018-11-04T14:37:19.107Z,142.30
2018-11-04T14:39:47.865Z,141.90
2018-11-04T14:42:30.250Z,147.60
2018-11-04T14:44:59.000Z,152.87
2018-11-04T14:47:28.731Z,157.10
2018-11-04T14:49:56.522Z,153.70
2018-11-04T14:52:25.201Z,154.43
2018-11-04T14:54:52.728Z,146.77
2018-11-04T14:57:22.349Z,142.80
2018-11-04T14:59:50.821Z,148.27
2018-11-04T15:02:18.446Z,149.73
2018-11-04T15:04:47.448Z,147.40
2018-11-04T15:07:17.477Z,147.00
2018-11-04T15:09:45.988Z,143.97
2018-11-04T15:12:16.866Z,143.00
2018-11-04T15:14:55.312Z,144.17
2018-11-04T15:17:25.016Z,145.60
2018-11-04T15:19:52.668Z,149.83
2018-11-04T15:22:21.382Z,144.03
2018-11-04T15:24:56.658Z,152.67
2018-11-04T15:27:24.183Z,149.93
2018-11-04T15:29:52.838Z,145.17
2018-11-04T15:32:30.681Z,154.97
2018-11-04T15:34:58.384Z,146.40
2018-11-04T15:37:26.323Z,163.27
2018-11-04T15:39:53.912Z,150.17
2018-11-04T15:42:21.545Z,151.77
2018-11-04T15:44:51.179Z,154.30
2018-11-04T15:47:23.684Z,153.47
2018-11-04T15:49:52.287Z,151.43
2018-11-04T15:52:33.056Z,151.73
2018-11-04T15:55:04.411Z,152.30
2018-11-04T15:57:35.932Z,159.53
2018-11-04T16:00:04.779Z,157.53
2018-11-04T16:02:34.444Z,158.80
2018-11-04T16:05:06.646Z,158.90
2018-11-04T16:07:36.448Z,171.27
2018-11-04T16:10:05.959Z,165.93
2018-11-04T16:12:34.592Z,159.13
2018-11-04T16:15:02.116Z,162.03
2018-11-04T16:17:29.658Z,160.83
2018-11-04T16:20:09.811Z,163.17
2018-11-04T16:22:43.111Z,173.27
2018-11-04T16:25:11.332Z,172.60
2018-11-04T16:27:42.509Z,164.33
2018-11-04T16:30:12.119Z,167.40
2018-11-04T16:32:54.197Z,173.73
2018-11-04T16:35:34.523Z,182.97
2018-11-04T16:38:26.153Z,173.00
2018-11-04T16:40:56.150Z,177.57
2018-11-04T16:43:25.883Z,169.43
2018-11-04T16:45:57.121Z,180.57
2018-11-04T16:48:35.615Z,177.33
2018-11-04T16:51:26.659Z,177.97
2018-11-04T16:53:56.187Z,190.00
2018-11-04T16:56:29.073Z,179.77
2018-11-04T16:58:58.907Z,187.60
2018-11-04T17:01:54.190Z,182.37
2018-11-04T21:38:02.445Z,214.27
2018-11-04T21:40:31.735Z,228.43
2018-11-04T21:42:59.315Z,220.37
2018-11-04T21:45:26.915Z,238.43
2018-11-04T21:47:55.671Z,234.93
2018-11-04T21:50:24.911Z,221.20
2018-11-04T21:53:15.708Z,215.77
2018-11-04T21:57:13.319Z,218.07
2018-11-04T21:59:42.475Z,231.53
2018-11-04T22:02:10.736Z,220.57
2018-11-04T22:04:38.278Z,206.60
2018-11-04T22:07:06.839Z,216.50
2018-11-04T22:09:36.524Z,209.70
2018-11-04T22:12:04.185Z,217.70
2018-11-04T22:14:31.769Z,214.77
2018-11-04T22:17:00.425Z,207.23
2018-11-04T22:19:28.755Z,224.50
2018-11-04T22:21:59.803Z,220.80
2018-11-04T22:24:31.776Z,217.67
2018-11-04T22:27:00.547Z,198.83
2018-11-04T22:29:28.124Z,217.53
2018-11-04T22:31:55.708Z,206.00
2018-11-04T22:34:23.309Z,205.03
2018-11-04T22:36:50.881Z,188.87
2018-11-04T22:39:25.949Z,199.37
2018-11-04T22:41:53.560Z,192.60
2018-11-04T22:44:23.525Z,191.30
2018-11-04T22:46:51.165Z,193.43
2018-11-04T22:49:21.986Z,193.53
2018-11-04T22:51:56.803Z,196.40
2018-11-04T22:54:25.413Z,200.03
2018-11-04T22:56:54.984Z,195.00
2018-11-04T22:59:22.604Z,203.27
2018-11-04T23:01:51.657Z,212.50
2018-11-04T23:04:24.741Z,205.43
2018-11-04T23:06:53.688Z,198.23
2018-11-04T23:09:22.398Z,203.53
2018-11-04T23:11:50.255Z,198.13
2018-11-04T23:14:19.358Z,213.23
2018-11-04T23:16:46.999Z,199.17
2018-11-04T23:19:14.905Z,192.37
2018-11-04T23:21:43.517Z,199.83
2018-11-04T23:24:13.331Z,199.50
2018-11-04T23:26:43.699Z,208.90
2018-11-04T23:29:11.444Z,211.03
2018-11-04T23:31:39.059Z,203.80
2018-11-04T23:34:07.708Z,200.03
2018-11-04T23:36:35.275Z,205.83
2018-11-04T23:39:02.926Z,204.37
2018-11-04T23:41:31.616Z,197.53
2018-11-04T23:43:59.203Z,195.43
2018-11-04T23:46:27.819Z,198.73
2018-11-04T23:48:55.338Z,199.97
2018-11-04T23:51:23.980Z,197.60
2018-11-04T23:53:59.807Z,215.53
2018-11-04T23:56:31.188Z,230.93
2018-11-04T23:58:59.097Z,236.90
